LTAG/ADF METAR and TAF weather

Enter ICAO airport designator
Station Type Date Time Source
LTAG METAR 2022/12/04 11:50 UTC NOAA

LTAG 041150Z 10002KT CAVOK 23/04 Q1017 NOSIG


Station Type Date Time Source
LTAG Decoded METAR 2022/12/04 11:50 UTC NOAA

Adana / Incirlik, Turkey (LTAG) 37-00N 035-25E 66M
Dec 04, 2022 - 06:50 AM EST / 2022.12.04 1150 UTC
Wind: from the E (100 degrees) at 2 MPH (2 KT):0
Visibility: greater than 7 mile(s):0
Temperature: 73 F (23 C)
Dew Point: 39 F (4 C)
Relative Humidity: 28%
Pressure (altimeter): 30.03 in. Hg (1017 hPa)
ob: LTAG 041150Z 10002KT CAVOK 23/04 Q1017 NOSIG
cycle: 12

Station Type Date Time Source
LTAG TAF 2022/12/04 12:03 UTC NOAA

TAF TAF LTAG 041040Z 0412/0512 VRB02KT CAVOK

Example: see airport list